createdAt,value
2023-03-06T00:02:57.988Z,57.52
2023-03-06T00:08:00.210Z,56.98
2023-03-06T00:13:05.629Z,57.16
2023-03-06T00:18:08.475Z,57.53
2023-03-06T00:23:11.063Z,57.44
2023-03-06T00:28:15.790Z,57.36
2023-03-06T00:33:18.133Z,57.97
2023-03-06T00:38:20.282Z,57.85
2023-03-06T00:43:22.347Z,56.73
2023-03-06T00:48:24.496Z,56.78
2023-03-06T00:53:26.657Z,56.70
2023-03-06T00:58:28.753Z,56.49
2023-03-06T01:03:30.870Z,56.19
2023-03-06T01:08:33.098Z,56.31
2023-03-06T01:13:35.371Z,56.51
2023-03-06T01:18:37.853Z,56.23
2023-03-06T01:23:40.379Z,56.04
2023-03-06T01:28:42.517Z,56.57
2023-03-06T01:33:45.406Z,56.16
2023-03-06T01:38:47.531Z,56.00
2023-03-06T01:43:49.927Z,55.95
2023-03-06T01:49:00.994Z,55.26
2023-03-06T01:54:08.997Z,55.84
2023-03-06T01:59:11.319Z,55.69
2023-03-06T02:04:14.105Z,55.49
2023-03-06T02:09:16.623Z,54.37
2023-03-06T02:14:18.775Z,55.18
2023-03-06T02:19:33.427Z,55.47
2023-03-06T02:24:58.483Z,54.42
2023-03-06T02:30:00.794Z,54.60
2023-03-06T02:35:04.011Z,55.21
2023-03-06T02:40:14.585Z,54.98
2023-03-06T02:45:23.765Z,55.15
2023-03-06T02:50:25.881Z,55.09
2023-03-06T02:55:27.949Z,55.10
2023-03-06T03:00:30.956Z,54.46
2023-03-06T03:05:33.306Z,54.43
2023-03-06T03:10:35.405Z,54.92
2023-03-06T03:15:37.553Z,54.63
2023-03-06T03:20:43.276Z,54.84
2023-03-06T03:25:45.414Z,54.68
2023-03-06T03:30:47.626Z,55.01
2023-03-06T03:35:57.277Z,54.70
2023-03-06T03:41:01.650Z,54.93
2023-03-06T03:46:03.980Z,54.87
2023-03-06T03:51:12.204Z,54.84
2023-03-06T03:56:14.367Z,54.88
2023-03-06T04:01:16.473Z,55.77
2023-03-06T04:06:19.083Z,55.66
2023-03-06T04:11:21.228Z,55.04
2023-03-06T04:16:23.510Z,55.29
2023-03-06T04:21:25.987Z,55.41
2023-03-06T04:26:28.108Z,56.41
2023-03-06T04:31:30.369Z,55.89
2023-03-06T04:36:34.441Z,56.21
2023-03-06T04:41:36.598Z,56.74
2023-03-06T04:46:38.921Z,56.88
2023-03-06T04:51:41.125Z,57.14
2023-03-06T04:56:43.229Z,58.43
2023-03-06T05:01:45.420Z,57.91
2023-03-06T05:06:47.570Z,59.33
2023-03-06T05:11:49.658Z,58.79
2023-03-06T05:16:51.744Z,59.22
2023-03-06T05:21:53.880Z,60.15
2023-03-06T05:26:56.054Z,60.18
2023-03-06T05:31:58.992Z,59.83
2023-03-06T05:37:01.822Z,59.99
2023-03-06T05:42:04.186Z,61.27
2023-03-06T05:47:06.382Z,61.74
2023-03-06T05:52:09.648Z,62.01
2023-03-06T05:57:11.973Z,62.62
2023-03-06T06:02:15.405Z,63.07
2023-03-06T06:07:17.744Z,63.69
2023-03-06T06:12:20.473Z,63.59
2023-03-06T06:17:22.772Z,64.17
2023-03-06T06:22:30.945Z,63.57
2023-03-06T06:27:33.149Z,64.29
2023-03-06T06:32:36.321Z,64.77
2023-03-06T06:37:38.542Z,65.08
2023-03-06T06:42:40.900Z,65.40
2023-03-06T06:47:43.622Z,65.57
2023-03-06T06:52:45.891Z,65.19
2023-03-06T06:57:47.981Z,64.91
2023-03-06T07:02:51.279Z,64.94
2023-03-06T07:07:53.394Z,64.45
2023-03-06T07:12:56.812Z,64.04
2023-03-06T07:18:00.745Z,64.04
2023-03-06T07:23:03.891Z,63.58
2023-03-06T07:28:06.112Z,63.60
2023-03-06T07:33:08.824Z,62.30
2023-03-06T07:38:11.534Z,63.07
2023-03-06T07:43:19.512Z,63.24
2023-03-06T07:48:21.993Z,63.40
2023-03-06T07:53:24.778Z,62.20
2023-03-06T07:58:26.940Z,61.22
2023-03-06T08:03:29.164Z,63.07
2023-03-06T08:08:31.312Z,62.67
2023-03-06T08:13:33.805Z,62.53
2023-03-06T08:18:39.615Z,63.49
2023-03-06T08:23:43.067Z,64.09
2023-03-06T08:28:47.649Z,64.93
2023-03-06T08:33:49.741Z,64.60
2023-03-06T08:38:52.453Z,63.65
2023-03-06T08:43:54.651Z,63.78
2023-03-06T08:48:57.156Z,63.25
2023-03-06T08:53:59.562Z,62.62
2023-03-06T08:59:03.897Z,61.21
2023-03-06T09:04:09.235Z,59.80
2023-03-06T09:09:13.271Z,59.88
2023-03-06T09:14:15.384Z,59.47
2023-03-06T09:19:17.841Z,56.31
2023-03-06T09:24:20.102Z,52.46
2023-03-06T09:29:22.224Z,51.88
2023-03-06T09:34:24.416Z,50.86
2023-03-06T09:39:27.333Z,48.93
2023-03-06T09:44:32.430Z,44.80
2023-03-06T09:49:48.364Z,40.82
2023-03-06T09:54:57.282Z,36.63
2023-03-06T10:00:05.727Z,38.31
2023-03-06T10:05:15.495Z,39.95
2023-03-06T10:10:24.094Z,39.47
2023-03-06T10:15:32.703Z,42.08
2023-03-06T10:20:41.319Z,45.13
2023-03-06T10:26:02.347Z,45.85
2023-03-06T10:31:25.025Z,46.87
2023-03-06T10:36:28.720Z,49.46
2023-03-06T10:41:35.810Z,51.64
2023-03-06T10:46:44.529Z,53.66
2023-03-06T10:52:21.699Z,54.29
2023-03-06T10:57:31.363Z,55.83
2023-03-06T11:02:41.023Z,55.12
2023-03-06T11:08:00.267Z,57.32
2023-03-06T11:13:09.009Z,55.11
2023-03-06T11:18:11.081Z,54.77
2023-03-06T11:23:18.038Z,52.96
2023-03-06T11:28:40.863Z,52.27
2023-03-06T11:33:48.911Z,52.78
2023-03-06T11:38:53.327Z,51.73
2023-03-06T11:44:17.947Z,51.19
2023-03-06T11:49:27.642Z,51.50
2023-03-06T11:54:30.033Z,52.57
2023-03-06T11:59:55.809Z,52.61
2023-03-06T12:05:22.667Z,53.46
2023-03-06T12:10:51.734Z,53.13
2023-03-06T12:15:54.357Z,51.94
2023-03-06T12:21:18.314Z,51.38
2023-03-06T12:26:51.449Z,51.79
2023-03-06T12:32:03.541Z,51.60
2023-03-06T12:37:20.855Z,51.96
2023-03-06T12:42:25.926Z,52.99
2023-03-06T12:47:31.516Z,53.39
2023-03-06T12:52:34.703Z,53.82
2023-03-06T12:57:36.832Z,55.02
2023-03-06T13:03:14.563Z,55.70
2023-03-06T13:08:38.222Z,56.17
2023-03-06T13:13:45.780Z,56.80
2023-03-06T13:19:00.843Z,56.80
2023-03-06T13:24:06.306Z,57.12
2023-03-06T13:29:36.425Z,57.49
2023-03-06T13:34:40.486Z,57.60
2023-03-06T13:40:15.243Z,57.32
2023-03-06T13:45:27.467Z,56.73
2023-03-06T13:50:37.956Z,56.16
2023-03-06T13:55:58.718Z,55.78
2023-03-06T14:01:27.940Z,56.39
2023-03-06T14:06:36.366Z,55.73
2023-03-06T14:11:50.482Z,54.82
2023-03-06T14:16:53.687Z,55.48
2023-03-06T14:21:57.702Z,54.90
2023-03-06T14:27:00.155Z,55.55
2023-03-06T14:32:02.819Z,57.26
2023-03-06T14:37:19.124Z,56.28
2023-03-06T14:42:25.176Z,57.32
2023-03-06T14:47:33.273Z,58.26
2023-03-06T14:52:36.431Z,58.54
2023-03-06T14:57:38.734Z,59.47
2023-03-06T15:02:41.185Z,60.05
2023-03-06T15:07:43.986Z,60.34
2023-03-06T15:12:50.812Z,60.70
2023-03-06T15:17:53.522Z,60.63
2023-03-06T15:22:55.661Z,60.66
2023-03-06T15:27:59.193Z,61.26
2023-03-06T15:33:18.502Z,61.78
2023-03-06T15:38:37.042Z,62.28
2023-03-06T15:43:41.000Z,62.71
2023-03-06T15:49:04.258Z,63.03
2023-03-06T15:54:12.196Z,63.55
2023-03-06T15:59:25.998Z,64.21
2023-03-06T16:04:28.156Z,64.35
2023-03-06T16:09:30.278Z,64.66
2023-03-06T16:14:32.568Z,65.05
2023-03-06T16:19:34.780Z,65.35
2023-03-06T16:24:37.295Z,66.19
2023-03-06T16:29:40.071Z,66.80
2023-03-06T16:34:42.175Z,66.83
2023-03-06T16:39:44.781Z,67.00
2023-03-06T16:44:47.031Z,66.96
2023-03-06T16:49:49.900Z,66.85
2023-03-06T16:54:52.110Z,66.52
2023-03-06T16:59:54.195Z,66.19
2023-03-06T17:04:56.341Z,66.29
2023-03-06T17:09:58.445Z,66.67
2023-03-06T17:15:03.078Z,67.21
2023-03-06T17:20:08.119Z,67.59
2023-03-06T17:25:10.566Z,68.23
2023-03-06T17:30:16.306Z,68.54
2023-03-06T17:35:18.933Z,67.79
2023-03-06T17:40:21.054Z,68.03
2023-03-06T17:45:23.591Z,68.58
2023-03-06T17:50:25.664Z,69.16
2023-03-06T17:55:28.973Z,68.88
2023-03-06T18:00:31.178Z,69.16
2023-03-06T18:05:33.327Z,69.40
2023-03-06T18:10:38.231Z,69.69
2023-03-06T18:15:40.923Z,69.44
2023-03-06T18:20:44.712Z,69.56
2023-03-06T18:25:48.777Z,69.55
2023-03-06T18:30:50.911Z,69.48
2023-03-06T18:35:53.619Z,69.17
2023-03-06T18:40:55.800Z,68.97
2023-03-06T18:45:58.644Z,70.37
2023-03-06T18:51:09.271Z,71.26
2023-03-06T18:56:22.030Z,71.18
2023-03-06T19:01:30.871Z,73.26
2023-03-06T19:06:33.290Z,72.85
2023-03-06T19:11:38.195Z,73.75
2023-03-06T19:16:40.881Z,73.77
2023-03-06T19:21:45.464Z,72.51
2023-03-06T19:26:47.679Z,73.76
2023-03-06T19:31:52.455Z,75.18
2023-03-06T19:36:55.079Z,74.51
2023-03-06T19:41:57.316Z,74.37
2023-03-06T19:46:59.545Z,76.50
2023-03-06T19:52:02.132Z,75.58
2023-03-06T19:57:04.282Z,73.95
2023-03-06T20:02:06.686Z,73.51
2023-03-06T20:07:08.906Z,74.29
2023-03-06T20:12:11.105Z,75.67
2023-03-06T20:17:13.295Z,76.44
2023-03-06T20:22:15.591Z,76.33
2023-03-06T20:27:17.830Z,76.87
2023-03-06T20:32:20.068Z,76.72
2023-03-06T20:37:22.227Z,77.11
2023-03-06T20:42:24.350Z,76.85
2023-03-06T20:47:27.010Z,77.27
2023-03-06T20:52:29.257Z,77.82
2023-03-06T20:57:31.366Z,77.73
2023-03-06T21:02:33.568Z,77.24
2023-03-06T21:07:36.043Z,76.54
2023-03-06T21:12:38.120Z,76.58
2023-03-06T21:17:40.190Z,75.89
2023-03-06T21:22:42.256Z,76.75
2023-03-06T21:27:44.405Z,76.86
2023-03-06T21:32:46.796Z,76.57
2023-03-06T21:37:49.246Z,75.94
2023-03-06T21:42:51.715Z,76.09
2023-03-06T21:47:53.857Z,76.67
2023-03-06T21:52:59.116Z,76.60
2023-03-06T21:58:01.562Z,76.79
2023-03-06T22:03:04.910Z,76.99
2023-03-06T22:08:07.140Z,77.10
2023-03-06T22:13:11.282Z,77.16
2023-03-06T22:18:15.955Z,77.12
2023-03-06T22:23:18.617Z,77.46
2023-03-06T22:29:03.298Z,77.49
2023-03-06T22:34:10.396Z,77.29
2023-03-06T22:39:17.650Z,77.75
2023-03-06T22:44:32.424Z,77.73
2023-03-06T23:20:52.061Z,78.97
2023-03-06T23:26:02.052Z,79.45
2023-03-06T23:31:15.318Z,79.82
2023-03-06T23:36:18.758Z,79.90
2023-03-06T23:41:24.089Z,80.37
2023-03-06T23:46:26.562Z,81.04
2023-03-06T23:51:28.705Z,81.56
2023-03-06T23:56:30.860Z,81.80
